createdAt,value
2019-04-28T00:00:37.005Z,68.30
2019-04-28T00:01:42.287Z,68.14
2019-04-28T00:02:46.111Z,67.51
2019-04-28T00:03:48.864Z,68.32
2019-04-28T00:04:51.444Z,68.12
2019-04-28T00:05:54.445Z,68.23
2019-04-28T00:06:56.597Z,68.02
2019-04-28T00:08:01.174Z,68.17
2019-04-28T00:09:06.247Z,68.67
2019-04-28T00:10:10.987Z,68.87
2019-04-28T00:11:13.675Z,69.00
2019-04-28T00:12:16.205Z,69.32
2019-04-28T00:13:20.827Z,68.86
2019-04-28T00:14:25.553Z,69.45
2019-04-28T00:15:27.524Z,69.05
2019-04-28T00:16:31.128Z,68.75
2019-04-28T00:17:33.862Z,68.36
2019-04-28T00:18:36.693Z,68.04
2019-04-28T00:19:40.722Z,68.69
2019-04-28T00:20:45.482Z,68.65
2019-04-28T00:21:51.673Z,68.72
2019-04-28T00:22:59.175Z,68.30
2019-04-28T00:24:11.445Z,68.65
2019-04-28T00:25:18.869Z,68.77
2019-04-28T00:26:24.700Z,69.04
2019-04-28T00:27:27.958Z,69.14
2019-04-28T00:28:31.169Z,68.33
2019-04-28T00:29:40.503Z,67.67
2019-04-28T00:30:41.725Z,68.10
2019-04-28T00:31:44.280Z,68.22
2019-04-28T00:32:46.969Z,68.06
2019-04-28T00:33:51.137Z,68.08
2019-04-28T00:34:53.749Z,67.95
2019-04-28T00:35:56.143Z,68.72
2019-04-28T00:37:01.367Z,68.97
2019-04-28T00:38:06.129Z,69.22
2019-04-28T00:39:10.998Z,69.51
2019-04-28T00:40:14.174Z,68.86
2019-04-28T00:41:16.892Z,69.73
2019-04-28T00:42:22.606Z,69.28
2019-04-28T00:43:25.164Z,69.07
2019-04-28T00:44:27.932Z,68.82
2019-04-28T00:45:31.406Z,69.17
2019-04-28T00:46:36.222Z,69.14
2019-04-28T00:47:41.270Z,69.45
2019-04-28T00:48:43.174Z,69.92
2019-04-28T00:49:46.080Z,69.71
2019-04-28T00:50:48.417Z,69.94
2019-04-28T00:51:50.889Z,69.97
2019-04-28T00:52:54.260Z,69.80
2019-04-28T00:53:56.512Z,69.96
2019-04-28T00:54:58.402Z,70.30
2019-04-28T00:56:02.168Z,70.64
2019-04-28T00:57:06.250Z,69.91
2019-04-28T00:58:10.872Z,69.44
2019-04-28T00:59:15.702Z,70.28
2019-04-28T01:00:21.516Z,69.78
2019-04-28T01:01:27.189Z,69.15
2019-04-28T01:02:34.165Z,70.19
2019-04-28T01:03:36.737Z,70.48
2019-04-28T01:04:38.927Z,70.11
2019-04-28T01:05:41.254Z,69.74
2019-04-28T01:06:45.109Z,70.61
2019-04-28T01:07:47.503Z,70.67
2019-04-28T01:08:51.604Z,70.58
2019-04-28T01:09:54.149Z,69.64
2019-04-28T01:10:57.265Z,69.08
2019-04-28T01:12:01.808Z,69.76
2019-04-28T01:13:04.974Z,69.09
2019-04-28T01:14:11.498Z,68.96
2019-04-28T01:15:17.003Z,68.45
2019-04-28T01:16:30.188Z,68.19
2019-04-28T01:17:34.599Z,68.27
2019-04-28T01:18:41.929Z,68.31
2019-04-28T01:19:49.873Z,68.54
2019-04-28T01:20:52.951Z,67.96
2019-04-28T01:22:07.735Z,67.98
2019-04-28T01:23:10.633Z,67.58
2019-04-28T01:24:12.907Z,67.36
2019-04-28T01:25:15.573Z,67.65
2019-04-28T01:26:19.994Z,67.28
2019-04-28T01:27:28.034Z,67.45
2019-04-28T01:28:30.600Z,67.68
2019-04-28T01:29:34.039Z,67.60
2019-04-28T01:30:56.479Z,67.11
2019-04-28T01:32:04.106Z,67.32
2019-04-28T01:33:12.637Z,67.52
2019-04-28T01:34:22.268Z,67.89
2019-04-28T01:35:24.982Z,69.36
2019-04-28T01:36:27.388Z,69.84
2019-04-28T01:37:29.752Z,68.84
2019-04-28T01:38:32.353Z,68.23
2019-04-28T01:39:34.914Z,67.84
2019-04-28T01:40:37.341Z,67.30
2019-04-28T01:41:39.955Z,67.18
2019-04-28T01:42:42.482Z,67.89
2019-04-28T01:43:44.756Z,67.61
2019-04-28T01:44:46.937Z,68.13
2019-04-28T01:45:50.238Z,68.71
2019-04-28T01:46:53.285Z,68.45
2019-04-28T01:47:56.380Z,69.82
2019-04-28T01:48:59.876Z,69.43
2019-04-28T01:50:03.516Z,69.50
2019-04-28T01:51:07.172Z,69.59
2019-04-28T01:52:10.417Z,68.92
2019-04-28T01:53:13.396Z,68.87
2019-04-28T01:54:15.827Z,68.79
2019-04-28T01:55:17.639Z,68.15
2019-04-28T01:56:20.481Z,67.46
2019-04-28T01:57:25.429Z,68.34
2019-04-28T01:58:29.663Z,68.48
2019-04-28T01:59:32.327Z,68.40
2019-04-28T02:00:34.696Z,68.26
2019-04-28T02:01:37.088Z,67.98
2019-04-28T02:02:40.729Z,67.71
2019-04-28T02:03:43.037Z,67.60
2019-04-28T02:04:45.572Z,67.63
2019-04-28T02:05:47.789Z,67.73
2019-04-28T02:06:50.957Z,68.80
2019-04-28T02:07:54.121Z,69.20
2019-04-28T02:08:56.591Z,69.54
2019-04-28T02:10:00.529Z,70.62
2019-04-28T02:11:03.498Z,70.11
2019-04-28T02:12:06.120Z,70.34
2019-04-28T02:13:09.595Z,70.23
2019-04-28T02:14:12.813Z,70.31
2019-04-28T02:15:16.132Z,70.54
2019-04-28T02:16:19.464Z,70.19
2019-04-28T02:17:22.055Z,70.77
2019-04-28T02:18:24.359Z,69.76
2019-04-28T02:19:26.984Z,69.04
2019-04-28T02:20:30.171Z,68.60
2019-04-28T02:21:41.309Z,68.92
2019-04-28T02:22:45.957Z,68.56
2019-04-28T02:23:49.281Z,68.51
2019-04-28T02:24:52.746Z,67.99
2019-04-28T02:25:55.047Z,67.90
2019-04-28T02:27:00.893Z,67.80
2019-04-28T02:28:02.808Z,67.58
2019-04-28T02:29:05.276Z,67.16
2019-04-28T02:30:11.488Z,67.49
2019-04-28T02:31:12.150Z,67.34
2019-04-28T02:32:14.679Z,67.42
2019-04-28T02:33:17.163Z,67.96
2019-04-28T02:34:21.189Z,67.45
2019-04-28T02:35:24.295Z,67.83
2019-04-28T02:36:27.717Z,67.50
2019-04-28T02:37:30.896Z,68.20
2019-04-28T02:38:34.287Z,68.12
2019-04-28T02:39:36.845Z,68.42
2019-04-28T02:40:40.549Z,67.93
2019-04-28T02:41:44.241Z,67.87
2019-04-28T02:42:47.025Z,67.76
2019-04-28T02:43:51.057Z,67.88
2019-04-28T02:44:54.071Z,67.59
2019-04-28T02:45:56.692Z,67.22
2019-04-28T02:47:00.797Z,67.65
2019-04-28T02:48:05.508Z,67.17
2019-04-28T02:49:10.335Z,66.91
2019-04-28T02:50:33.169Z,66.77
2019-04-28T02:51:40.872Z,66.64
2019-04-28T02:52:54.188Z,66.49
2019-04-28T02:53:56.629Z,65.85
2019-04-28T02:55:03.282Z,65.91
2019-04-28T02:56:05.392Z,65.93
2019-04-28T02:57:10.705Z,66.84
2019-04-28T02:58:13.483Z,66.49
2019-04-28T02:59:15.891Z,66.83
2019-04-28T03:00:21.274Z,66.43
2019-04-28T03:01:26.401Z,66.08
2019-04-28T03:02:26.205Z,65.63
2019-04-28T03:03:30.823Z,66.01
2019-04-28T03:04:34.453Z,66.24
2019-04-28T03:05:36.840Z,66.21
2019-04-28T03:06:40.771Z,66.07
2019-04-28T03:07:43.212Z,65.85
2019-04-28T03:08:46.010Z,66.67
2019-04-28T03:09:51.974Z,66.82
2019-04-28T03:10:54.123Z,67.01
2019-04-28T03:11:56.800Z,66.75
2019-04-28T03:13:01.067Z,66.20
2019-04-28T03:14:03.813Z,65.66
2019-04-28T03:15:06.870Z,66.20
2019-04-28T03:16:10.797Z,66.37
2019-04-28T03:17:13.497Z,66.63
2019-04-28T03:18:16.510Z,66.82
2019-04-28T03:19:20.964Z,67.51
2019-04-28T03:20:22.657Z,67.66
2019-04-28T03:21:25.342Z,68.52
2019-04-28T03:22:31.233Z,68.55
2019-04-28T03:23:32.493Z,68.49
2019-04-28T03:24:34.569Z,67.42
2019-04-28T03:25:36.771Z,67.16
2019-04-28T03:26:50.651Z,67.19
2019-04-28T03:27:52.648Z,66.75
2019-04-28T03:29:01.052Z,66.31
2019-04-28T03:30:07.711Z,65.69
2019-04-28T03:31:59.157Z,66.27
2019-04-28T03:32:45.251Z,66.06
2019-04-28T03:33:48.023Z,66.54
2019-04-28T03:34:45.582Z,67.20
2019-04-28T03:35:47.967Z,66.81
2019-04-28T03:36:51.833Z,66.33
2019-04-28T03:37:54.690Z,66.50
2019-04-28T03:39:00.764Z,66.73
2019-04-28T03:40:05.325Z,67.98
2019-04-28T03:41:10.934Z,67.84
2019-04-28T03:42:12.513Z,69.15
2019-04-28T03:43:15.092Z,68.31
2019-04-28T03:44:17.892Z,68.96
2019-04-28T03:45:22.440Z,68.88
2019-04-28T03:46:30.479Z,69.01
2019-04-28T03:47:32.468Z,69.23
2019-04-28T03:48:34.758Z,68.96
2019-04-28T03:49:37.488Z,69.47
2019-04-28T03:50:41.331Z,70.47
2019-04-28T03:51:44.688Z,70.03
2019-04-28T03:52:46.995Z,69.84
2019-04-28T03:53:50.705Z,69.15
2019-04-28T03:54:53.175Z,68.98
2019-04-28T03:55:56.188Z,68.85
2019-04-28T03:57:01.294Z,69.86
2019-04-28T03:58:05.321Z,69.73
2019-04-28T03:59:10.239Z,69.58
2019-04-28T04:00:12.817Z,70.05
2019-04-28T04:01:16.982Z,69.50
2019-04-28T04:02:22.963Z,69.78
2019-04-28T04:03:23.803Z,70.53
2019-04-28T04:04:26.443Z,70.32
2019-04-28T04:05:30.624Z,70.47
2019-04-28T04:06:32.920Z,70.61
2019-04-28T04:07:35.145Z,71.41
2019-04-28T04:08:37.576Z,70.25
2019-04-28T04:09:45.339Z,69.11
2019-04-28T04:10:50.371Z,69.65
2019-04-28T04:11:53.195Z,69.51
2019-04-28T04:12:57.362Z,69.19
2019-04-28T04:14:11.519Z,69.67
2019-04-28T04:15:22.686Z,69.18
2019-04-28T04:16:30.598Z,69.56
2019-04-28T04:17:34.609Z,69.90
2019-04-28T04:18:40.690Z,69.51
2019-04-28T04:19:43.529Z,68.52
2019-04-28T04:20:46.236Z,68.01
2019-04-28T04:21:50.620Z,67.38
2019-04-28T04:22:53.050Z,67.32
2019-04-28T04:23:55.389Z,67.22
2019-04-28T04:24:57.098Z,67.40
2019-04-28T04:26:01.734Z,67.48
2019-04-28T04:27:03.709Z,67.25
2019-04-28T04:28:06.088Z,66.46
2019-04-28T04:29:10.158Z,66.34
2019-04-28T04:30:12.876Z,66.35
2019-04-28T04:31:15.816Z,67.42
2019-04-28T04:32:24.164Z,67.44
2019-04-28T04:33:23.964Z,68.60
2019-04-28T04:34:26.585Z,68.92
2019-04-28T04:35:31.498Z,68.10
2019-04-28T04:36:33.490Z,68.40
2019-04-28T04:37:36.303Z,68.38
2019-04-28T04:38:46.045Z,69.00
2019-04-28T04:39:45.593Z,68.77
2019-04-28T04:40:51.303Z,68.98
2019-04-28T04:41:53.961Z,69.34
2019-04-28T04:42:55.678Z,70.01
2019-04-28T04:43:57.925Z,71.12
2019-04-28T04:45:00.779Z,71.19
2019-04-28T04:46:22.632Z,72.40
2019-04-28T04:47:25.746Z,72.57
2019-04-28T04:48:27.627Z,71.67
2019-04-28T04:49:31.601Z,72.36
2019-04-28T04:50:34.965Z,72.57
2019-04-28T04:51:40.713Z,72.74
2019-04-28T04:52:42.494Z,72.76
2019-04-28T04:53:45.247Z,73.15
2019-04-28T04:54:51.043Z,73.26
2019-04-28T04:55:52.999Z,73.80
2019-04-28T04:56:55.467Z,73.58
2019-04-28T04:57:57.424Z,73.46
2019-04-28T04:59:02.852Z,73.75
2019-04-28T05:00:10.072Z,73.77
2019-04-28T05:01:25.767Z,74.05
2019-04-28T05:02:33.068Z,73.41
2019-04-28T05:03:40.413Z,73.22
2019-04-28T05:04:47.577Z,72.69
2019-04-28T05:05:50.272Z,73.17
2019-04-28T05:06:53.469Z,72.95
2019-04-28T05:07:57.324Z,73.22
2019-04-28T05:08:59.979Z,72.87
2019-04-28T05:10:05.745Z,72.59
2019-04-28T05:11:09.590Z,73.12
2019-04-28T05:12:12.907Z,73.38
2019-04-28T05:13:15.522Z,73.72
2019-04-28T05:14:19.898Z,73.89
2019-04-28T05:15:22.183Z,73.42
2019-04-28T05:16:25.084Z,72.75
2019-04-28T05:17:27.805Z,72.43
2019-04-28T05:18:30.178Z,71.91
2019-04-28T05:19:32.658Z,71.90
2019-04-28T05:20:35.764Z,72.65
2019-04-28T05:21:39.850Z,72.53
2019-04-28T05:22:43.943Z,73.44
2019-04-28T05:23:52.774Z,73.56
2019-04-28T05:25:10.086Z,73.54
2019-04-28T05:26:13.918Z,73.04
2019-04-28T05:27:17.375Z,72.88
2019-04-28T05:28:21.052Z,73.58
2019-04-28T05:29:27.185Z,72.74
2019-04-28T05:30:29.652Z,73.23
2019-04-28T05:31:32.286Z,72.30
2019-04-28T05:32:44.615Z,72.43
2019-04-28T05:33:42.124Z,72.43
2019-04-28T05:34:46.728Z,72.51
2019-04-28T05:35:50.070Z,72.06
2019-04-28T05:36:52.346Z,71.40
2019-04-28T05:37:54.824Z,71.52
2019-04-28T05:38:57.699Z,70.94
2019-04-28T05:40:00.961Z,70.92
2019-04-28T05:41:03.887Z,70.25
2019-04-28T05:42:06.162Z,70.05
2019-04-28T05:43:07.871Z,69.14
2019-04-28T05:44:10.661Z,69.49
2019-04-28T05:45:13.590Z,70.73
2019-04-28T05:46:16.197Z,70.15
2019-04-28T05:47:20.311Z,71.48
2019-04-28T05:48:27.402Z,71.54
2019-04-28T05:49:34.107Z,71.45
2019-04-28T05:50:40.951Z,71.43
2019-04-28T05:51:51.591Z,71.61
2019-04-28T05:53:06.476Z,72.02
2019-04-28T05:54:09.876Z,72.59
2019-04-28T05:55:14.241Z,72.08
2019-04-28T05:56:24.736Z,72.19
2019-04-28T05:57:30.573Z,72.13
2019-04-28T05:58:41.995Z,71.76
2019-04-28T05:59:55.587Z,71.62
2019-04-28T06:01:05.616Z,71.73
2019-04-28T06:02:10.600Z,72.96
2019-04-28T06:03:22.535Z,72.44
2019-04-28T06:04:26.637Z,72.30
2019-04-28T06:05:30.124Z,71.11
2019-04-28T06:06:37.157Z,71.58
2019-04-28T06:07:40.486Z,72.20
2019-04-28T06:08:50.968Z,72.47
2019-04-28T06:09:54.847Z,72.79
2019-04-28T06:10:57.572Z,73.37
2019-04-28T06:12:00.445Z,72.69
2019-04-28T06:13:03.630Z,73.11
2019-04-28T06:14:06.041Z,74.37
2019-04-28T06:15:11.749Z,73.44
2019-04-28T06:16:15.230Z,73.67
2019-04-28T06:17:20.428Z,73.90
2019-04-28T06:18:22.919Z,74.83
2019-04-28T06:19:25.291Z,74.03
2019-04-28T06:20:27.911Z,74.61
2019-04-28T06:21:32.382Z,75.04
2019-04-28T06:22:34.639Z,74.55
2019-04-28T06:23:36.792Z,75.21
2019-04-28T06:24:40.067Z,75.12
2019-04-28T06:25:42.718Z,74.69
2019-04-28T06:26:45.586Z,73.99
2019-04-28T06:27:47.344Z,74.69
2019-04-28T06:28:49.872Z,75.09
2019-04-28T06:29:54.356Z,75.17
2019-04-28T06:30:56.410Z,75.91
2019-04-28T06:31:59.568Z,75.65
2019-04-28T06:33:07.945Z,75.55
2019-04-28T06:34:07.154Z,76.50
2019-04-28T06:35:10.358Z,75.83
2019-04-28T06:36:13.250Z,75.51
2019-04-28T06:37:14.947Z,76.25
2019-04-28T06:38:17.174Z,75.78
2019-04-28T06:39:20.045Z,75.78
2019-04-28T06:40:21.837Z,76.86
2019-04-28T06:41:24.932Z,76.53
2019-04-28T06:42:27.432Z,76.37
2019-04-28T06:43:29.213Z,76.48
2019-04-28T06:44:32.001Z,76.99
2019-04-28T06:45:34.549Z,77.13
2019-04-28T06:46:38.196Z,76.64
2019-04-28T06:47:41.181Z,76.61
2019-04-28T06:48:43.543Z,75.37
2019-04-28T06:49:45.765Z,75.19
2019-04-28T06:50:48.449Z,74.91
2019-04-28T06:51:51.117Z,75.54
2019-04-28T06:52:54.199Z,74.50
2019-04-28T06:53:56.470Z,75.29
2019-04-28T06:54:58.641Z,74.94
2019-04-28T06:56:00.981Z,76.10
2019-04-28T06:57:03.899Z,75.47
2019-04-28T06:58:05.685Z,75.37
2019-04-28T06:59:08.094Z,74.70
2019-04-28T07:00:11.314Z,74.80
2019-04-28T07:01:14.044Z,74.10
2019-04-28T07:02:16.608Z,75.41
2019-04-28T07:03:23.265Z,76.14
2019-04-28T07:04:24.217Z,75.55
2019-04-28T07:05:26.721Z,76.99
2019-04-28T07:06:28.946Z,75.84
2019-04-28T07:07:31.491Z,75.05
2019-04-28T07:08:33.785Z,74.79
2019-04-28T07:09:36.387Z,74.70
2019-04-28T07:10:39.076Z,74.87
2019-04-28T07:11:41.778Z,75.50
2019-04-28T07:12:44.611Z,74.59
2019-04-28T07:13:49.014Z,75.01
2019-04-28T07:14:53.360Z,75.55
2019-04-28T07:15:55.354Z,76.46
2019-04-28T07:16:58.191Z,76.97
2019-04-28T07:18:00.583Z,76.43
2019-04-28T07:19:04.306Z,76.65
2019-04-28T07:20:11.774Z,76.83
2019-04-28T07:21:16.558Z,76.70
2019-04-28T07:22:20.930Z,77.04
2019-04-28T07:23:23.473Z,76.53
2019-04-28T07:24:26.998Z,77.64
2019-04-28T07:25:29.846Z,77.33
2019-04-28T07:26:32.401Z,76.93
2019-04-28T07:27:35.498Z,76.54
2019-04-28T07:28:38.134Z,75.74
2019-04-28T07:29:41.038Z,76.34
2019-04-28T07:30:43.853Z,77.15
2019-04-28T07:31:46.267Z,77.95
2019-04-28T07:32:49.469Z,77.77
2019-04-28T07:33:51.400Z,77.64
2019-04-28T07:34:53.664Z,77.33
2019-04-28T07:35:55.963Z,77.19
2019-04-28T07:36:58.756Z,76.26
2019-04-28T07:38:01.099Z,75.63
2019-04-28T07:39:05.715Z,75.56
2019-04-28T07:40:08.914Z,75.96
2019-04-28T07:41:12.131Z,75.54
2019-04-28T07:42:14.015Z,75.15
2019-04-28T07:43:16.419Z,75.81
2019-04-28T07:44:18.917Z,75.92
2019-04-28T07:45:22.625Z,74.70
2019-04-28T07:46:26.115Z,73.79
2019-04-28T07:47:28.393Z,72.88
2019-04-28T07:48:31.056Z,71.31
2019-04-28T07:49:33.886Z,70.05
2019-04-28T07:50:37.325Z,68.91
2019-04-28T07:51:58.620Z,67.59
2019-04-28T07:53:14.084Z,66.07
2019-04-28T07:54:21.309Z,65.03
2019-04-28T07:55:23.950Z,64.39
2019-04-28T07:56:26.299Z,63.61
2019-04-28T07:57:28.694Z,63.16
2019-04-28T07:58:32.276Z,62.40
2019-04-28T07:59:35.285Z,61.76
2019-04-28T08:00:39.239Z,61.22
2019-04-28T08:01:43.326Z,60.86
2019-04-28T08:02:46.374Z,60.36
2019-04-28T08:03:50.017Z,59.50
2019-04-28T08:04:52.573Z,59.15
2019-04-28T08:05:56.302Z,58.83
2019-04-28T08:06:58.720Z,58.65
2019-04-28T08:08:01.340Z,58.46
2019-04-28T08:09:07.843Z,57.58
2019-04-28T08:10:12.094Z,57.60
2019-04-28T08:11:15.789Z,57.57
2019-04-28T08:12:18.113Z,56.65
2019-04-28T08:13:19.982Z,56.86
2019-04-28T08:14:22.634Z,56.84
2019-04-28T08:15:26.048Z,56.67
2019-04-28T08:16:28.802Z,56.33
2019-04-28T08:17:31.599Z,55.80
2019-04-28T08:18:34.094Z,55.38
2019-04-28T08:19:36.792Z,55.69
2019-04-28T08:20:39.593Z,55.36
2019-04-28T08:21:42.613Z,54.98
2019-04-28T08:22:45.135Z,55.12
2019-04-28T08:23:48.042Z,55.16
2019-04-28T08:24:50.886Z,54.74
2019-04-28T08:25:53.570Z,54.60
2019-04-28T08:26:56.091Z,54.15
2019-04-28T08:27:59.560Z,54.10
2019-04-28T08:29:02.160Z,54.33
2019-04-28T08:30:05.950Z,53.64
2019-04-28T08:31:09.522Z,53.72
2019-04-28T08:32:17.656Z,53.44
2019-04-28T08:33:22.722Z,53.73
2019-04-28T08:34:24.968Z,53.33
2019-04-28T08:35:27.364Z,53.46
2019-04-28T08:36:29.675Z,53.36
2019-04-28T08:37:32.662Z,53.11
2019-04-28T08:38:35.753Z,53.33
2019-04-28T08:39:37.713Z,53.20
2019-04-28T08:40:41.413Z,52.95
2019-04-28T08:41:44.053Z,53.06
2019-04-28T08:42:46.807Z,53.02
2019-04-28T08:43:49.829Z,53.24
2019-04-28T08:44:52.430Z,52.84
2019-04-28T08:45:55.433Z,52.87
2019-04-28T08:46:59.327Z,52.93
2019-04-28T08:48:01.861Z,52.86
2019-04-28T08:49:06.945Z,52.98
2019-04-28T08:50:10.872Z,52.96
2019-04-28T08:51:13.578Z,52.66
2019-04-28T08:52:15.339Z,52.81
2019-04-28T08:53:17.668Z,52.87
2019-04-28T08:54:20.313Z,52.81
2019-04-28T08:55:23.123Z,52.95
2019-04-28T08:56:25.851Z,52.97
2019-04-28T08:57:28.499Z,52.81
2019-04-28T08:58:30.750Z,52.74
2019-04-28T08:59:33.579Z,52.77
2019-04-28T09:00:36.148Z,52.56
2019-04-28T09:01:38.931Z,52.33
2019-04-28T09:02:42.216Z,52.53
2019-04-28T09:03:45.698Z,52.58
2019-04-28T09:04:48.160Z,52.59
2019-04-28T09:05:50.753Z,52.49
2019-04-28T09:06:52.943Z,52.58
2019-04-28T09:07:56.194Z,52.18
2019-04-28T09:08:59.058Z,52.35
2019-04-28T09:10:00.887Z,52.25
2019-04-28T09:11:03.682Z,52.32
2019-04-28T09:12:06.694Z,52.35
2019-04-28T09:13:08.546Z,52.28
2019-04-28T09:14:11.452Z,52.26
2019-04-28T09:15:15.102Z,52.19
2019-04-28T09:16:17.522Z,52.29
2019-04-28T09:17:20.693Z,52.03
2019-04-28T09:18:23.703Z,51.95
2019-04-28T09:19:26.480Z,52.04
2019-04-28T09:20:29.236Z,52.11
2019-04-28T09:21:34.197Z,52.04
2019-04-28T09:22:36.888Z,51.94
2019-04-28T09:23:39.125Z,52.02
2019-04-28T09:24:41.900Z,51.98
2019-04-28T09:25:44.967Z,52.03
2019-04-28T09:26:47.614Z,51.80
2019-04-28T09:27:49.861Z,51.91
2019-04-28T09:28:52.437Z,51.79
2019-04-28T09:29:54.900Z,52.56
2019-04-28T09:30:57.185Z,52.92
2019-04-28T09:32:01.848Z,53.30
2019-04-28T09:33:04.800Z,53.32
2019-04-28T09:34:07.825Z,53.15
2019-04-28T09:35:11.160Z,52.96
2019-04-28T09:36:14.230Z,54.26
2019-04-28T09:37:17.523Z,52.71
2019-04-28T09:38:20.577Z,53.23
2019-04-28T09:39:32.409Z,53.16
2019-04-28T09:40:35.224Z,52.82
2019-04-28T09:41:40.286Z,53.12
2019-04-28T09:42:45.232Z,53.11
2019-04-28T09:44:02.043Z,54.22
2019-04-28T09:45:07.647Z,52.67
2019-04-28T09:46:10.844Z,52.77
2019-04-28T09:47:13.549Z,52.56
2019-04-28T09:48:16.389Z,53.42
2019-04-28T09:49:19.091Z,52.73
2019-04-28T09:50:23.193Z,53.51
2019-04-28T09:51:26.544Z,54.33
2019-04-28T09:52:29.395Z,52.62
2019-04-28T09:53:32.459Z,53.19
2019-04-28T09:54:35.745Z,53.58
2019-04-28T09:55:39.615Z,53.01
2019-04-28T09:56:55.758Z,53.79
2019-04-28T09:57:48.743Z,53.22
2019-04-28T09:58:52.823Z,52.74
2019-04-28T09:59:55.379Z,52.73
2019-04-28T10:00:57.498Z,53.37
2019-04-28T10:02:00.219Z,52.74
2019-04-28T10:03:03.455Z,52.81
2019-04-28T10:04:05.816Z,52.68
2019-04-28T10:05:09.496Z,52.18
2019-04-28T10:06:12.670Z,52.20
2019-04-28T10:07:14.466Z,52.43
2019-04-28T10:08:16.823Z,52.45
2019-04-28T10:09:19.735Z,52.00
2019-04-28T10:10:23.672Z,51.67
2019-04-28T10:11:30.557Z,51.73
2019-04-28T10:12:30.610Z,52.50
2019-04-28T10:13:33.737Z,51.90
2019-04-28T10:14:36.059Z,52.29
2019-04-28T10:15:38.672Z,52.05
2019-04-28T10:16:43.122Z,51.38
2019-04-28T10:17:47.078Z,52.17
2019-04-28T10:18:49.766Z,52.10
2019-04-28T10:19:53.210Z,51.95
2019-04-28T10:20:59.700Z,51.46
2019-04-28T10:22:02.624Z,51.76
2019-04-28T10:23:07.395Z,51.75
2019-04-28T10:24:10.346Z,51.53
2019-04-28T10:25:12.873Z,51.50
2019-04-28T10:26:16.365Z,51.93
2019-04-28T10:27:18.213Z,51.78
2019-04-28T10:28:21.295Z,51.60
2019-04-28T10:29:24.206Z,51.50
2019-04-28T10:30:27.389Z,51.82
2019-04-28T10:31:30.450Z,51.83
2019-04-28T10:32:32.853Z,51.85
2019-04-28T10:33:36.953Z,51.99
2019-04-28T10:34:39.335Z,51.80
2019-04-28T10:35:41.920Z,51.97
2019-04-28T10:36:44.715Z,51.63
2019-04-28T10:37:47.465Z,51.57
2019-04-28T10:38:51.811Z,51.64
2019-04-28T10:39:56.205Z,51.70
2019-04-28T10:41:17.445Z,51.80
2019-04-28T10:42:19.913Z,51.50
2019-04-28T10:43:22.953Z,51.46
2019-04-28T10:44:30.800Z,51.71
2019-04-28T10:45:34.686Z,51.54
2019-04-28T10:46:38.163Z,51.59
2019-04-28T10:47:42.065Z,51.88
2019-04-28T10:48:45.501Z,51.44
2019-04-28T10:49:48.503Z,51.67
2019-04-28T10:50:51.421Z,51.71
2019-04-28T10:51:59.483Z,51.46
2019-04-28T10:52:59.099Z,51.54
2019-04-28T10:54:02.794Z,51.49
2019-04-28T10:55:06.657Z,51.65
2019-04-28T10:56:09.447Z,51.05
2019-04-28T10:57:12.524Z,51.56
2019-04-28T10:58:14.744Z,51.28
2019-04-28T10:59:17.905Z,51.66
2019-04-28T11:00:22.520Z,51.62
2019-04-28T11:01:25.767Z,51.73
2019-04-28T11:02:29.949Z,51.67
2019-04-28T11:03:32.890Z,51.40
2019-04-28T11:04:38.302Z,51.57
2019-04-28T11:05:42.852Z,51.67
2019-04-28T11:06:46.436Z,51.84
2019-04-28T11:07:51.869Z,52.04
2019-04-28T11:09:05.756Z,52.05
2019-04-28T11:10:18.961Z,51.78
2019-04-28T11:11:23.864Z,51.47
2019-04-28T11:12:27.936Z,51.73
2019-04-28T11:13:30.473Z,51.55
2019-04-28T11:14:33.779Z,51.39
2019-04-28T11:15:40.296Z,51.52
2019-04-28T11:16:43.303Z,51.58
2019-04-28T11:17:46.728Z,51.66
2019-04-28T11:18:49.248Z,51.47
2019-04-28T11:19:54.457Z,51.56
2019-04-28T11:20:56.744Z,51.15
2019-04-28T11:22:01.276Z,51.13
2019-04-28T11:23:06.101Z,51.01
2019-04-28T11:24:08.976Z,51.26
2019-04-28T11:25:11.497Z,51.43
2019-04-28T11:26:14.415Z,51.14
2019-04-28T11:27:18.153Z,51.46
2019-04-28T11:28:20.279Z,51.12
2019-04-28T11:29:22.686Z,51.25
2019-04-28T11:30:25.827Z,50.95
2019-04-28T11:31:28.933Z,51.19
2019-04-28T11:32:31.884Z,51.13
2019-04-28T11:33:53.096Z,51.19
2019-04-28T11:34:58.221Z,51.22
2019-04-28T11:36:01.616Z,51.50
2019-04-28T11:37:04.048Z,51.49
2019-04-28T11:38:07.080Z,51.30
2019-04-28T11:39:12.159Z,51.95
2019-04-28T11:40:17.311Z,52.01
2019-04-28T11:41:21.188Z,52.38
2019-04-28T11:42:23.963Z,52.54
2019-04-28T11:43:26.759Z,52.41
2019-04-28T11:44:31.098Z,52.94
2019-04-28T11:45:33.206Z,52.75
2019-04-28T11:46:36.842Z,52.36
2019-04-28T11:47:39.763Z,51.28
2019-04-28T11:48:42.113Z,51.10
2019-04-28T11:49:44.781Z,51.18
2019-04-28T11:50:47.615Z,51.17
2019-04-28T11:51:50.335Z,51.08
2019-04-28T11:52:53.548Z,50.70
2019-04-28T11:53:56.454Z,51.32
2019-04-28T11:54:58.530Z,50.79
2019-04-28T11:56:01.795Z,51.01
2019-04-28T11:57:05.024Z,50.93
2019-04-28T11:58:07.061Z,50.55
2019-04-28T11:59:09.853Z,50.69
2019-04-28T12:00:20.444Z,50.62
2019-04-28T12:01:23.183Z,50.43
2019-04-28T12:02:25.776Z,50.42
2019-04-28T12:03:28.110Z,49.90
2019-04-28T12:04:30.886Z,50.00
2019-04-28T12:05:38.419Z,50.04
2019-04-28T12:06:41.647Z,50.14
2019-04-28T12:07:44.337Z,50.07
2019-04-28T12:08:49.674Z,50.06
2019-04-28T12:10:04.172Z,50.03
2019-04-28T12:11:06.847Z,50.96
2019-04-28T12:12:23.788Z,50.29
2019-04-28T12:13:46.568Z,49.82
2019-04-28T12:14:57.990Z,49.87
2019-04-28T12:16:19.006Z,49.92
2019-04-28T12:17:24.336Z,49.80
2019-04-28T12:18:31.009Z,49.99
2019-04-28T12:19:44.244Z,50.01
2019-04-28T12:20:47.685Z,50.00
2019-04-28T12:21:49.803Z,50.49
2019-04-28T12:22:52.982Z,49.99
2019-04-28T12:23:55.734Z,49.94
2019-04-28T12:25:00.397Z,50.08
2019-04-28T12:26:03.579Z,49.99
2019-04-28T12:27:06.438Z,50.47
2019-04-28T12:28:09.128Z,50.76
2019-04-28T12:29:12.106Z,50.55
2019-04-28T12:30:15.131Z,50.39
2019-04-28T12:31:19.511Z,50.45
2019-04-28T12:32:21.725Z,50.58
2019-04-28T12:33:24.652Z,50.32
2019-04-28T12:34:27.338Z,50.53
2019-04-28T12:35:29.957Z,50.51
2019-04-28T12:36:33.347Z,50.67
2019-04-28T12:37:35.863Z,50.60
2019-04-28T12:38:38.869Z,50.74
2019-04-28T12:39:41.161Z,50.81
2019-04-28T12:40:44.333Z,50.82
2019-04-28T12:41:47.487Z,50.78
2019-04-28T12:42:50.258Z,51.09
2019-04-28T12:43:52.529Z,51.05
2019-04-28T12:44:54.948Z,51.06
2019-04-28T12:45:57.395Z,50.87
2019-04-28T12:47:01.841Z,51.10
2019-04-28T12:48:04.342Z,51.01
2019-04-28T12:49:09.412Z,51.11
2019-04-28T12:50:14.303Z,51.13
2019-04-28T12:51:17.009Z,51.30
2019-04-28T12:52:19.451Z,51.10
2019-04-28T12:53:22.687Z,51.13
2019-04-28T12:54:28.445Z,51.21
2019-04-28T12:55:32.259Z,51.13
2019-04-28T12:56:34.751Z,51.11
2019-04-28T12:57:37.489Z,50.90
2019-04-28T12:58:39.866Z,51.03
2019-04-28T12:59:44.224Z,50.96
2019-04-28T13:00:48.913Z,51.20
2019-04-28T13:02:10.076Z,51.06
2019-04-28T13:03:12.355Z,50.92
2019-04-28T13:04:22.459Z,50.93
2019-04-28T13:05:24.860Z,50.97
2019-04-28T13:06:27.508Z,51.03
2019-04-28T13:07:30.136Z,50.96
2019-04-28T13:08:32.569Z,50.77
2019-04-28T13:09:35.340Z,50.78
2019-04-28T13:10:37.924Z,50.70
2019-04-28T13:11:40.134Z,50.80
2019-04-28T13:12:42.306Z,50.67
2019-04-28T13:13:46.759Z,50.86
2019-04-28T13:14:48.356Z,50.70
2019-04-28T13:15:52.940Z,50.96
2019-04-28T13:16:55.512Z,50.85
2019-04-28T13:17:58.369Z,50.78
2019-04-28T13:19:00.119Z,50.76
2019-04-28T13:20:05.263Z,50.82
2019-04-28T13:21:09.712Z,50.58
2019-04-28T13:22:11.915Z,50.48
2019-04-28T13:23:14.419Z,50.73
2019-04-28T13:24:18.333Z,50.70
2019-04-28T13:25:20.985Z,50.65
2019-04-28T13:26:23.692Z,50.68
2019-04-28T13:27:25.919Z,50.66
2019-04-28T13:28:27.966Z,50.61
2019-04-28T13:29:30.519Z,50.67
2019-04-28T13:30:33.103Z,50.75
2019-04-28T13:31:35.764Z,50.82
2019-04-28T13:32:38.411Z,50.84
2019-04-28T13:33:55.360Z,50.98
2019-04-28T13:34:46.101Z,50.94
2019-04-28T13:35:48.949Z,51.11
2019-04-28T13:36:51.313Z,51.27
2019-04-28T13:37:54.317Z,51.00
2019-04-28T13:38:58.839Z,50.63
2019-04-28T13:40:02.893Z,50.51
2019-04-28T13:41:06.085Z,50.83
2019-04-28T13:42:08.817Z,50.74
2019-04-28T13:43:11.255Z,50.85
2019-04-28T13:44:16.272Z,50.62